createdAt,value
2023-05-25T00:00:11.358Z,2.58
2023-05-25T00:02:39.587Z,2.25
2023-05-25T00:05:09.179Z,2.15
2023-05-25T00:07:35.840Z,2.90
2023-05-25T00:10:02.712Z,2.38
2023-05-25T00:12:29.141Z,2.42
2023-05-25T00:14:55.633Z,2.63
2023-05-25T00:17:22.492Z,2.50
2023-05-25T00:19:49.026Z,2.57
2023-05-25T00:24:42.222Z,2.40
2023-05-25T00:27:08.907Z,3.22
2023-05-25T00:29:36.208Z,3.15
2023-05-25T00:32:03.368Z,2.63
2023-05-25T00:34:29.786Z,2.67
2023-05-25T00:36:56.330Z,2.35
2023-05-25T00:39:23.494Z,2.60
2023-05-25T00:41:50.201Z,2.05
2023-05-25T00:44:21.383Z,2.20
2023-05-25T00:46:50.682Z,2.78
2023-05-25T00:49:18.913Z,2.42
2023-05-25T00:51:46.852Z,2.20
2023-05-25T00:54:17.296Z,5.43
2023-05-25T00:57:04.247Z,2.97
2023-05-25T00:59:40.813Z,2.58
2023-05-25T01:02:12.156Z,3.10
2023-05-25T01:04:45.269Z,2.60
2023-05-25T01:07:17.568Z,2.97
2023-05-25T01:09:45.804Z,2.83
2023-05-25T01:12:15.024Z,2.53
2023-05-25T01:14:42.044Z,2.50
2023-05-25T01:17:10.415Z,2.90
2023-05-25T01:19:40.996Z,2.45
2023-05-25T01:22:20.112Z,2.70
2023-05-25T01:24:47.984Z,2.67
2023-05-25T01:27:32.568Z,3.13
2023-05-25T01:29:59.963Z,3.70
2023-05-25T01:32:27.177Z,2.25
2023-05-25T01:34:56.364Z,2.67
2023-05-25T01:37:24.518Z,2.50
2023-05-25T01:39:51.158Z,2.22
2023-05-25T01:42:17.608Z,2.63
2023-05-25T01:44:44.586Z,3.00
2023-05-25T01:47:23.735Z,2.93
2023-05-25T01:49:58.436Z,2.38
2023-05-25T01:52:32.477Z,2.70
2023-05-25T01:55:19.107Z,2.30
2023-05-25T01:57:50.943Z,2.50
2023-05-25T02:00:19.680Z,2.40
2023-05-25T02:02:47.199Z,2.25
2023-05-25T02:05:13.856Z,2.35
2023-05-25T02:07:40.304Z,2.65
2023-05-25T02:10:07.184Z,2.10
2023-05-25T02:12:33.690Z,2.10
2023-05-25T02:15:00.116Z,2.00
2023-05-25T02:17:28.049Z,3.00
2023-05-25T02:19:54.749Z,2.55
2023-05-25T02:22:22.697Z,2.65
2023-05-25T02:24:49.271Z,2.07
2023-05-25T02:27:15.843Z,2.60
2023-05-25T02:29:42.458Z,2.22
2023-05-25T02:32:09.535Z,2.53
2023-05-25T02:34:36.129Z,3.03
2023-05-25T02:37:02.710Z,2.57
2023-05-25T02:39:29.198Z,2.45
2023-05-25T02:41:55.711Z,3.22
2023-05-25T02:44:22.512Z,2.40
2023-05-25T02:46:49.039Z,2.63
2023-05-25T02:49:15.510Z,2.80
2023-05-25T02:51:41.974Z,2.63
2023-05-25T02:54:08.448Z,3.08
2023-05-25T02:56:34.934Z,2.88
2023-05-25T02:59:01.393Z,2.40
2023-05-25T03:01:30.822Z,2.87
2023-05-25T03:03:57.435Z,2.90
2023-05-25T03:06:26.276Z,2.10
2023-05-25T03:08:52.930Z,2.30
2023-05-25T03:11:19.387Z,3.05
2023-05-25T03:13:45.897Z,2.20
2023-05-25T03:16:12.720Z,3.10
2023-05-25T03:18:39.257Z,2.85
2023-05-25T03:21:06.110Z,2.33
2023-05-25T03:23:32.557Z,2.90
2023-05-25T03:25:59.789Z,2.97
2023-05-25T03:28:26.386Z,2.72
2023-05-25T03:30:52.797Z,2.75
2023-05-25T03:33:19.193Z,2.53
2023-05-25T03:35:46.274Z,2.75
2023-05-25T03:38:12.969Z,3.07
2023-05-25T03:40:39.392Z,2.47
2023-05-25T03:43:06.024Z,2.38
2023-05-25T03:45:32.554Z,2.67
2023-05-25T03:47:59.093Z,2.50
2023-05-25T03:50:25.578Z,2.87
2023-05-25T03:52:53.126Z,2.40
2023-05-25T03:55:19.667Z,2.35
2023-05-25T03:57:46.137Z,2.60
2023-05-25T04:00:13.247Z,2.58
2023-05-25T04:02:39.884Z,2.80
2023-05-25T04:05:06.928Z,2.28
2023-05-25T04:07:33.409Z,2.65
2023-05-25T04:09:59.846Z,2.63
2023-05-25T04:12:27.397Z,3.17
2023-05-25T04:14:54.030Z,2.60
2023-05-25T04:17:24.820Z,2.50
2023-05-25T04:19:52.171Z,2.45
2023-05-25T04:22:19.016Z,2.70
2023-05-25T04:24:46.053Z,3.15
2023-05-25T04:27:14.260Z,2.70
2023-05-25T04:29:41.664Z,3.05
2023-05-25T04:32:14.552Z,2.67
2023-05-25T04:34:42.668Z,2.47
2023-05-25T04:37:09.343Z,2.60
2023-05-25T04:39:36.053Z,3.23
2023-05-25T04:42:04.581Z,2.88
2023-05-25T04:44:35.012Z,2.67
2023-05-25T04:47:01.656Z,2.92
2023-05-25T04:49:28.574Z,2.97
2023-05-25T04:51:55.039Z,2.97
2023-05-25T04:54:22.001Z,3.42
2023-05-25T04:56:48.809Z,3.10
2023-05-25T04:59:15.586Z,2.88
2023-05-25T05:01:42.282Z,2.97
2023-05-25T05:04:09.030Z,2.53
2023-05-25T05:06:36.522Z,3.47
2023-05-25T05:09:03.609Z,2.92
2023-05-25T05:11:30.601Z,3.50
2023-05-25T05:13:57.102Z,3.40
2023-05-25T05:16:23.795Z,3.57
2023-05-25T05:18:50.680Z,3.70
2023-05-25T05:21:17.194Z,4.10
2023-05-25T05:23:43.920Z,3.67
2023-05-25T05:26:15.101Z,4.32
2023-05-25T05:28:41.633Z,5.10
2023-05-25T05:31:08.240Z,4.95
2023-05-25T05:33:34.896Z,4.50
2023-05-25T05:36:02.727Z,4.70
2023-05-25T05:38:29.243Z,5.07
2023-05-25T05:40:55.874Z,4.80
2023-05-25T05:43:22.750Z,5.20
2023-05-25T05:45:49.146Z,5.05
2023-05-25T05:48:16.133Z,4.97
2023-05-25T05:50:42.668Z,5.63
2023-05-25T05:53:09.894Z,5.37
2023-05-25T05:55:36.709Z,5.20
2023-05-25T05:58:03.280Z,4.95
2023-05-25T06:00:29.797Z,5.00
2023-05-25T06:02:56.394Z,4.97
2023-05-25T06:05:23.636Z,4.53
2023-05-25T06:07:50.192Z,5.47
2023-05-25T06:10:16.752Z,5.35
2023-05-25T06:12:43.256Z,5.22
2023-05-25T06:15:10.226Z,4.60
2023-05-25T06:17:37.112Z,4.03
2023-05-25T06:20:03.958Z,5.05
2023-05-25T06:22:30.690Z,4.57
2023-05-25T06:24:57.843Z,4.60
2023-05-25T06:27:24.381Z,5.13
2023-05-25T06:29:50.856Z,4.83
2023-05-25T06:32:17.305Z,4.60
2023-05-25T06:34:43.780Z,4.40
2023-05-25T06:37:10.266Z,4.30
2023-05-25T06:39:36.732Z,4.60
2023-05-25T06:42:03.254Z,4.40
2023-05-25T06:44:29.817Z,4.68
2023-05-25T06:46:56.317Z,4.57
2023-05-25T06:49:22.747Z,4.97
2023-05-25T06:51:51.089Z,5.10
2023-05-25T06:54:17.695Z,4.47
2023-05-25T06:56:44.169Z,4.30
2023-05-25T06:59:10.664Z,4.10
2023-05-25T07:01:37.601Z,4.63
2023-05-25T07:04:04.093Z,3.85
2023-05-25T07:06:30.921Z,3.80
2023-05-25T07:08:57.462Z,4.10
2023-05-25T07:11:23.945Z,4.00
2023-05-25T07:13:50.664Z,3.80
2023-05-25T07:16:17.166Z,3.72
2023-05-25T07:18:43.840Z,3.60
2023-05-25T07:21:11.345Z,3.45
2023-05-25T07:23:38.146Z,4.10
2023-05-25T07:26:05.989Z,3.55
2023-05-25T07:28:32.782Z,3.70
2023-05-25T07:30:59.316Z,3.90
2023-05-25T07:33:25.976Z,3.97
2023-05-25T07:35:52.492Z,3.50
2023-05-25T07:38:19.127Z,4.50
2023-05-25T07:40:47.341Z,3.88
2023-05-25T07:43:13.855Z,3.20
2023-05-25T07:45:40.402Z,3.33
2023-05-25T07:48:07.810Z,4.50
2023-05-25T07:50:34.510Z,4.22
2023-05-25T07:53:01.389Z,4.05
2023-05-25T07:55:27.875Z,4.00
2023-05-25T07:57:54.464Z,4.10
2023-05-25T08:00:21.356Z,4.40
2023-05-25T08:02:48.062Z,3.78
2023-05-25T08:05:14.800Z,4.22
2023-05-25T08:07:42.812Z,4.43
2023-05-25T08:10:09.999Z,3.83
2023-05-25T08:12:47.990Z,3.40
2023-05-25T08:15:17.282Z,3.50
2023-05-25T08:17:44.175Z,3.15
2023-05-25T08:20:11.466Z,2.93
2023-05-25T08:22:37.945Z,2.55
2023-05-25T08:25:05.180Z,3.05
2023-05-25T08:27:35.186Z,2.33
2023-05-25T08:30:02.786Z,2.45
2023-05-25T08:32:29.252Z,3.50
2023-05-25T08:34:56.049Z,2.75
2023-05-25T08:37:23.679Z,2.95
2023-05-25T08:39:50.488Z,3.53
2023-05-25T08:42:16.981Z,2.78
2023-05-25T08:44:43.642Z,2.90
2023-05-25T08:47:12.262Z,2.88
2023-05-25T08:49:39.846Z,2.83
2023-05-25T08:52:13.418Z,2.85
2023-05-25T08:54:43.926Z,3.20
2023-05-25T08:57:12.741Z,3.93
2023-05-25T09:00:18.595Z,2.90
2023-05-25T09:02:54.539Z,2.35
2023-05-25T09:05:22.718Z,2.97
2023-05-25T09:07:51.472Z,3.10
2023-05-25T09:10:18.140Z,3.23
2023-05-25T09:12:44.728Z,3.20
2023-05-25T09:15:11.843Z,2.58
2023-05-25T09:17:38.684Z,2.85
2023-05-25T09:20:06.084Z,3.17
2023-05-25T09:22:32.673Z,3.07
2023-05-25T09:24:59.644Z,2.10
2023-05-25T09:27:26.079Z,2.10
2023-05-25T09:29:52.646Z,2.25
2023-05-25T09:32:19.847Z,2.38
2023-05-25T09:34:47.408Z,2.43
2023-05-25T09:37:16.593Z,2.42
2023-05-25T09:39:44.320Z,2.50
2023-05-25T09:42:11.717Z,2.10
2023-05-25T09:44:39.463Z,1.75
2023-05-25T09:47:06.480Z,1.57
2023-05-25T09:49:33.177Z,2.55
2023-05-25T09:52:00.689Z,2.28
2023-05-25T09:54:27.434Z,2.10
2023-05-25T09:56:54.393Z,2.20
2023-05-25T09:59:22.715Z,2.17
2023-05-25T10:01:53.600Z,2.40
2023-05-25T10:04:20.429Z,2.95
2023-05-25T10:06:49.957Z,1.92
2023-05-25T10:09:18.593Z,2.22
2023-05-25T10:11:45.464Z,2.67
2023-05-25T10:14:15.680Z,1.83
2023-05-25T10:16:43.980Z,1.83
2023-05-25T10:19:22.006Z,1.88
2023-05-25T10:22:01.281Z,1.60
2023-05-25T10:24:49.462Z,1.80
2023-05-25T10:27:27.423Z,1.50
2023-05-25T10:29:56.668Z,1.60
2023-05-25T10:32:24.080Z,1.50
2023-05-25T10:34:53.145Z,1.60
2023-05-25T10:37:20.085Z,1.50
2023-05-25T10:39:47.916Z,1.50
2023-05-25T10:42:14.336Z,1.95
2023-05-25T10:44:42.376Z,1.73
2023-05-25T10:47:09.882Z,1.52
2023-05-25T10:49:52.606Z,1.80
2023-05-25T10:52:20.087Z,2.00
2023-05-25T10:54:48.003Z,1.40
2023-05-25T10:57:22.667Z,1.65
2023-05-25T10:59:51.613Z,1.73
2023-05-25T11:02:23.598Z,1.70
2023-05-25T11:04:50.950Z,1.58
2023-05-25T11:07:19.466Z,1.95
2023-05-25T11:09:58.445Z,1.63
2023-05-25T11:12:26.445Z,1.30
2023-05-25T11:15:15.031Z,1.47
2023-05-25T11:17:47.006Z,1.30
2023-05-25T11:20:24.020Z,1.70
2023-05-25T11:22:52.586Z,1.90
2023-05-25T11:25:40.526Z,2.10
2023-05-25T11:28:08.842Z,2.37
2023-05-25T11:30:35.552Z,1.90
2023-05-25T11:33:03.460Z,2.05
2023-05-25T11:35:33.718Z,2.35
2023-05-25T11:38:00.515Z,2.20
2023-05-25T11:40:31.056Z,1.90
2023-05-25T11:43:00.885Z,1.63
2023-05-25T11:45:33.481Z,1.88
2023-05-25T11:48:00.448Z,2.03
2023-05-25T11:50:28.179Z,1.60
2023-05-25T11:52:54.980Z,1.67
2023-05-25T11:55:21.677Z,1.92
2023-05-25T11:57:55.747Z,2.10
2023-05-25T12:00:27.270Z,1.65
2023-05-25T12:02:53.965Z,2.05
2023-05-25T12:05:20.736Z,2.17
2023-05-25T12:07:47.405Z,2.05
2023-05-25T12:10:18.700Z,1.95
2023-05-25T12:12:49.368Z,1.90
2023-05-25T12:15:20.959Z,1.52
2023-05-25T12:17:48.507Z,1.87
2023-05-25T12:20:17.461Z,1.40
2023-05-25T12:22:45.360Z,1.70
2023-05-25T12:25:13.203Z,1.98
2023-05-25T12:27:42.521Z,1.30
2023-05-25T12:30:13.057Z,1.60
2023-05-25T12:32:53.789Z,1.67
2023-05-25T12:35:20.474Z,1.70
2023-05-25T12:37:46.957Z,1.42
2023-05-25T12:40:18.490Z,2.22
2023-05-25T12:42:45.563Z,2.07
2023-05-25T12:45:12.114Z,2.03
2023-05-25T12:47:38.566Z,2.10
2023-05-25T12:50:16.418Z,1.90
2023-05-25T12:52:45.142Z,2.05
2023-05-25T12:55:27.954Z,1.90
2023-05-25T12:58:05.690Z,1.83
2023-05-25T13:00:40.982Z,1.30
2023-05-25T13:03:08.032Z,1.90
2023-05-25T13:05:39.416Z,2.53
2023-05-25T13:08:07.202Z,1.67
2023-05-25T13:10:34.791Z,2.03
2023-05-25T13:13:01.424Z,1.70
2023-05-25T13:15:28.474Z,1.50
2023-05-25T13:17:58.301Z,1.98
2023-05-25T13:20:26.608Z,2.20
2023-05-25T13:22:55.755Z,2.20
2023-05-25T13:25:22.779Z,1.67
2023-05-25T13:27:50.825Z,1.80
2023-05-25T13:30:17.827Z,1.75
2023-05-25T13:32:44.870Z,2.10
2023-05-25T13:35:22.691Z,2.08
2023-05-25T13:37:49.226Z,2.58
2023-05-25T13:40:15.830Z,2.00
2023-05-25T13:42:42.298Z,2.22
2023-05-25T13:45:09.348Z,2.33
2023-05-25T13:47:35.945Z,1.95
2023-05-25T13:50:02.468Z,3.00
2023-05-25T13:52:28.999Z,2.10
2023-05-25T13:54:55.521Z,2.13
2023-05-25T13:57:22.725Z,2.13
2023-05-25T13:59:49.197Z,2.03
2023-05-25T14:02:15.954Z,2.40
2023-05-25T14:04:42.517Z,2.13
2023-05-25T14:07:08.992Z,2.60
2023-05-25T14:09:35.590Z,2.67
2023-05-25T14:12:03.054Z,2.25
2023-05-25T14:14:32.210Z,1.85
2023-05-25T14:17:00.255Z,2.38
2023-05-25T14:19:27.037Z,2.50
2023-05-25T14:22:11.036Z,2.77
2023-05-25T14:24:39.550Z,2.50
2023-05-25T14:27:07.204Z,1.98
2023-05-25T14:29:34.054Z,2.38
2023-05-25T14:32:00.593Z,2.78
2023-05-25T14:34:27.908Z,2.50
2023-05-25T14:36:54.440Z,2.33
2023-05-25T14:39:20.914Z,2.30
2023-05-25T14:41:47.314Z,2.30
2023-05-25T14:44:14.087Z,2.67
2023-05-25T14:46:40.770Z,2.77
2023-05-25T14:49:07.277Z,2.58
2023-05-25T14:51:33.687Z,2.92
2023-05-25T14:54:03.438Z,2.50
2023-05-25T14:56:29.942Z,2.40
2023-05-25T14:58:56.575Z,2.47
2023-05-25T15:01:25.176Z,1.95
2023-05-25T15:03:52.313Z,2.45
2023-05-25T15:06:19.266Z,2.53
2023-05-25T15:08:45.799Z,2.35
2023-05-25T15:11:12.278Z,2.60
2023-05-25T15:13:40.652Z,2.95
2023-05-25T15:16:11.245Z,2.38
2023-05-25T15:18:37.779Z,2.58
2023-05-25T15:21:04.443Z,2.15
2023-05-25T15:23:31.679Z,2.87
2023-05-25T15:26:02.952Z,3.15
2023-05-25T15:28:32.611Z,2.80
2023-05-25T15:31:02.273Z,2.97
2023-05-25T15:33:43.633Z,2.42
2023-05-25T15:36:15.675Z,2.83
2023-05-25T15:38:48.782Z,2.33
2023-05-25T15:41:18.756Z,1.95
2023-05-25T15:43:52.598Z,2.33
2023-05-25T15:46:19.282Z,2.25
2023-05-25T15:48:45.795Z,2.93
2023-05-25T15:51:12.295Z,2.65
2023-05-25T15:53:38.785Z,2.97
2023-05-25T15:56:05.551Z,2.50
2023-05-25T15:58:34.323Z,2.53
2023-05-25T16:01:01.547Z,3.50
2023-05-25T16:03:28.503Z,3.45
2023-05-25T16:05:55.408Z,2.08
2023-05-25T16:08:22.545Z,2.78
2023-05-25T16:10:49.302Z,2.90
2023-05-25T16:13:16.141Z,2.60
2023-05-25T16:15:42.719Z,2.65
2023-05-25T16:18:09.585Z,2.83
2023-05-25T16:20:36.173Z,2.30
2023-05-25T16:23:02.738Z,2.70
2023-05-25T16:25:29.259Z,2.33
2023-05-25T16:27:55.766Z,2.50
2023-05-25T16:30:22.379Z,2.70
2023-05-25T16:32:48.934Z,2.35
2023-05-25T16:35:15.510Z,2.60
2023-05-25T16:37:41.924Z,3.40
2023-05-25T16:40:08.894Z,2.33
2023-05-25T16:42:35.328Z,2.75
2023-05-25T16:45:01.794Z,2.67
2023-05-25T16:47:28.294Z,2.35
2023-05-25T16:49:54.727Z,2.57
2023-05-25T16:52:21.224Z,2.88
2023-05-25T16:54:47.721Z,2.30
2023-05-25T16:57:14.218Z,3.17
2023-05-25T16:59:40.885Z,2.88
2023-05-25T17:02:07.407Z,2.57
2023-05-25T17:04:33.861Z,2.88
2023-05-25T17:07:00.358Z,2.50
2023-05-25T17:09:26.905Z,3.70
2023-05-25T17:11:54.005Z,2.95
2023-05-25T17:14:20.936Z,2.93
2023-05-25T17:16:47.618Z,3.08
2023-05-25T17:19:15.082Z,2.53
2023-05-25T17:21:42.069Z,3.08
2023-05-25T17:24:08.637Z,2.97
2023-05-25T17:26:35.066Z,2.60
2023-05-25T17:29:01.528Z,3.15
2023-05-25T17:31:28.075Z,3.45
2023-05-25T17:33:55.430Z,2.90
2023-05-25T17:36:23.564Z,3.50
2023-05-25T17:38:50.603Z,3.53
2023-05-25T17:41:17.207Z,2.67
2023-05-25T17:43:43.646Z,2.90
2023-05-25T17:46:10.313Z,2.92
2023-05-25T17:48:37.508Z,3.25
2023-05-25T17:51:03.939Z,2.90
2023-05-25T17:53:30.670Z,3.13
2023-05-25T17:55:57.175Z,2.50
2023-05-25T17:58:23.968Z,3.50
2023-05-25T18:00:50.680Z,2.55
2023-05-25T18:03:17.220Z,2.77
2023-05-25T18:05:44.017Z,3.28
2023-05-25T18:08:10.737Z,2.45
2023-05-25T18:10:37.304Z,3.00
2023-05-25T18:13:03.725Z,2.47
2023-05-25T18:15:30.324Z,3.30
2023-05-25T18:17:56.914Z,3.08
2023-05-25T18:20:23.991Z,3.55
2023-05-25T18:22:50.537Z,2.83
2023-05-25T18:25:16.979Z,2.92
2023-05-25T18:27:43.465Z,3.50
2023-05-25T18:30:10.556Z,2.00
2023-05-25T18:32:37.028Z,2.00
2023-05-25T18:35:03.856Z,2.85
2023-05-25T18:37:34.205Z,2.17
2023-05-25T18:40:01.011Z,2.70
2023-05-25T18:42:27.483Z,2.65
2023-05-25T18:44:53.983Z,3.05
2023-05-25T18:47:20.539Z,2.42
2023-05-25T18:49:47.188Z,2.72
2023-05-25T18:52:13.676Z,2.57
2023-05-25T18:54:40.166Z,2.58
2023-05-25T18:57:07.210Z,2.47
2023-05-25T18:59:33.941Z,3.28
2023-05-25T19:02:01.392Z,2.65
2023-05-25T19:04:28.007Z,2.53
2023-05-25T19:06:54.815Z,2.55
2023-05-25T19:09:21.369Z,2.50
2023-05-25T19:11:47.800Z,2.83
2023-05-25T19:14:14.275Z,2.42
2023-05-25T19:16:40.757Z,2.50
2023-05-25T19:19:07.332Z,3.13
2023-05-25T19:21:33.805Z,3.10
2023-05-25T19:24:00.228Z,3.08
2023-05-25T19:26:27.463Z,2.92
2023-05-25T19:28:54.007Z,2.50
2023-05-25T19:31:21.465Z,2.40
2023-05-25T19:33:47.984Z,2.65
2023-05-25T19:36:14.442Z,3.33
2023-05-25T19:38:42.115Z,2.78
2023-05-25T19:41:08.985Z,2.97
2023-05-25T19:43:36.164Z,3.30
2023-05-25T19:46:03.175Z,3.13
2023-05-25T19:48:29.739Z,2.28
2023-05-25T19:50:56.208Z,3.42
2023-05-25T19:53:22.824Z,3.35
2023-05-25T19:55:49.344Z,2.53
2023-05-25T19:58:16.099Z,2.70
2023-05-25T20:00:42.574Z,3.35
2023-05-25T20:03:09.617Z,2.95
2023-05-25T20:05:36.129Z,2.60
2023-05-25T20:08:03.596Z,2.40
2023-05-25T20:10:30.628Z,2.95
2023-05-25T20:12:57.091Z,2.53
2023-05-25T20:15:23.805Z,2.55
2023-05-25T20:17:50.261Z,2.63
2023-05-25T20:20:16.827Z,2.57
2023-05-25T20:22:43.400Z,2.75
2023-05-25T20:25:09.978Z,2.58
2023-05-25T20:27:36.444Z,2.00
2023-05-25T20:30:03.011Z,2.25
2023-05-25T20:32:29.594Z,2.53
2023-05-25T20:34:56.062Z,3.55
2023-05-25T20:37:22.714Z,2.35
2023-05-25T20:39:49.193Z,1.90
2023-05-25T20:42:15.640Z,2.63
2023-05-25T20:44:42.153Z,2.70
2023-05-25T20:47:08.640Z,2.28
2023-05-25T20:49:35.333Z,3.05
2023-05-25T20:52:02.201Z,3.25
2023-05-25T20:54:28.723Z,1.95
2023-05-25T20:56:55.213Z,2.43
2023-05-25T20:59:22.094Z,2.40
2023-05-25T21:01:48.938Z,2.08
2023-05-25T21:04:15.654Z,2.33
2023-05-25T21:06:42.074Z,3.67
2023-05-25T21:09:08.478Z,2.13
2023-05-25T21:11:34.927Z,2.83
2023-05-25T21:14:02.056Z,2.33
2023-05-25T21:16:28.592Z,2.20
2023-05-25T21:18:55.119Z,2.63
2023-05-25T21:21:21.651Z,2.00
2023-05-25T21:23:48.111Z,2.00
2023-05-25T21:26:14.637Z,2.00
2023-05-25T21:28:41.074Z,2.25
2023-05-25T21:31:07.644Z,2.47
2023-05-25T21:33:36.093Z,2.00
2023-05-25T21:36:03.786Z,2.85
2023-05-25T21:38:30.629Z,2.63
2023-05-25T21:40:58.446Z,1.67
2023-05-25T21:43:27.069Z,2.65
2023-05-25T21:45:53.567Z,2.53
2023-05-25T21:48:20.148Z,2.25
2023-05-25T21:50:46.779Z,1.98
2023-05-25T21:53:13.240Z,1.83
2023-05-25T21:55:39.691Z,2.83
2023-05-25T21:58:06.095Z,3.00
2023-05-25T22:00:35.197Z,2.08
2023-05-25T22:03:02.115Z,2.20
2023-05-25T22:05:34.062Z,3.08
2023-05-25T22:08:02.090Z,2.60
2023-05-25T22:10:28.756Z,2.87
2023-05-25T22:12:56.199Z,2.65
2023-05-25T22:15:25.508Z,2.53
2023-05-25T22:17:52.058Z,2.65
2023-05-25T22:20:19.118Z,2.58
2023-05-25T22:22:45.716Z,2.93
2023-05-25T22:25:12.899Z,2.92
2023-05-25T22:27:39.393Z,2.67
2023-05-25T22:30:09.222Z,2.55
2023-05-25T22:32:35.887Z,2.63
2023-05-25T22:35:02.674Z,2.43
2023-05-25T22:37:29.185Z,2.28
2023-05-25T22:39:55.736Z,2.85
2023-05-25T22:42:22.535Z,2.80
2023-05-25T22:44:51.829Z,1.80
2023-05-25T22:47:18.349Z,2.50
2023-05-25T22:49:44.964Z,2.42
2023-05-25T22:52:11.792Z,2.85
2023-05-25T22:54:38.324Z,2.50
2023-05-25T22:57:05.534Z,2.20
2023-05-25T22:59:32.129Z,2.53
2023-05-25T23:01:58.650Z,2.65
2023-05-25T23:04:25.354Z,2.30
2023-05-25T23:06:51.850Z,2.78
2023-05-25T23:09:18.401Z,2.33
2023-05-25T23:11:44.882Z,1.93
2023-05-25T23:14:11.735Z,2.45
2023-05-25T23:16:38.216Z,2.35
2023-05-25T23:19:04.792Z,2.65
2023-05-25T23:21:31.646Z,1.67
2023-05-25T23:23:58.030Z,3.10
2023-05-25T23:26:24.452Z,2.80
2023-05-25T23:28:51.034Z,3.17
2023-05-25T23:31:17.647Z,2.53
2023-05-25T23:33:44.104Z,1.92
2023-05-25T23:36:10.535Z,1.67
2023-05-25T23:38:36.985Z,1.77
2023-05-25T23:41:03.593Z,2.30
2023-05-25T23:43:30.132Z,2.08
2023-05-25T23:45:56.969Z,2.25
2023-05-25T23:48:23.911Z,2.33
2023-05-25T23:50:50.523Z,3.50
2023-05-25T23:53:16.970Z,2.20
2023-05-25T23:55:43.705Z,2.72
2023-05-25T23:58:10.333Z,2.58
